KCNM

Cavern City Air Trml Airport

Carlsbad, New Mexico, USA
METAR KCNM 141253Z AUTO 15004KT 10SM CLR 20/18 A2995 RMK AO2 SLP085 T02000178 $
Observed Flight Rules
Aug-14 @ 12:53 UTC (50 minutes ago) Visual Flight Rules
Wind Visibility Clouds
150° at 4 knots 10 miles
  • Clear skies
Temperatures Readings
Current 20°C / 68°F
Dewpoint 18°C / 64°F
Humidity 88%
Altimeter 29.95" Hg
Pressure 1008.5 hPa
Elevation 985
METAR KCNM 141253Z AUTO 15004KT 10SM CLR 20/18 A2995 RMK AO2 SLP085 T02000178 $
Observed Flight Rules
Aug-14 @ 12:53 UTC
(50 minutes ago)
VFR
Wind Visibility
150° at 4 knots 10 miles
Clouds
  • Clear skies
Temperature Dewpoint
20°C / 68°F 18°C / 64°F
Humidity Altimeter Pressure
88% 29.95" Hg 1008.5 hPa